createdAt,value
2023-04-13T00:00:49.170Z,65.07
2023-04-13T00:03:15.683Z,65.23
2023-04-13T00:05:41.971Z,65.97
2023-04-13T00:08:08.272Z,66.10
2023-04-13T00:10:34.681Z,66.18
2023-04-13T00:13:01.101Z,66.72
2023-04-13T00:15:27.513Z,66.67
2023-04-13T00:17:54.066Z,66.69
2023-04-13T00:20:20.347Z,66.86
2023-04-13T00:22:46.809Z,67.32
2023-04-13T00:25:13.177Z,67.10
2023-04-13T00:27:39.608Z,67.55
2023-04-13T00:30:06.121Z,67.87
2023-04-13T00:32:32.538Z,68.51
2023-04-13T00:34:58.936Z,68.85
2023-04-13T00:37:25.395Z,68.65
2023-04-13T00:39:53.924Z,68.53
2023-04-13T00:42:20.299Z,68.44
2023-04-13T00:44:46.719Z,68.18
2023-04-13T00:47:13.132Z,68.03
2023-04-13T00:49:39.495Z,68.37
2023-04-13T00:52:05.876Z,68.73
2023-04-13T00:54:32.289Z,69.50
2023-04-13T00:56:58.703Z,69.73
2023-04-13T00:59:25.066Z,69.53
2023-04-13T01:01:51.532Z,69.24
2023-04-13T01:04:17.893Z,69.04
2023-04-13T01:06:44.249Z,69.08
2023-04-13T01:09:10.616Z,69.47
2023-04-13T01:11:37.037Z,68.83
2023-04-13T01:14:03.394Z,68.67
2023-04-13T01:16:34.775Z,67.85
2023-04-13T01:21:45.425Z,67.85
2023-04-13T01:24:14.325Z,67.82
2023-04-13T01:26:40.779Z,67.72
2023-04-13T01:29:07.175Z,68.08
2023-04-13T01:31:33.712Z,68.40
2023-04-13T01:34:00.284Z,68.71
2023-04-13T01:36:26.362Z,68.91
2023-04-13T01:38:52.740Z,68.65
2023-04-13T01:41:19.114Z,68.75
2023-04-13T01:43:46.968Z,69.19
2023-04-13T01:46:13.330Z,68.90
2023-04-13T01:48:39.760Z,68.79
2023-04-13T01:51:06.170Z,68.66
2023-04-13T01:53:32.605Z,68.86
2023-04-13T01:55:58.976Z,68.89
2023-04-13T01:58:25.372Z,69.08
2023-04-13T02:00:52.137Z,69.14
2023-04-13T02:03:18.567Z,69.00
2023-04-13T02:05:45.282Z,68.66
2023-04-13T02:08:11.630Z,68.87
2023-04-13T02:10:38.087Z,69.06
2023-04-13T02:13:04.510Z,68.97
2023-04-13T02:15:30.867Z,68.83
2023-04-13T02:17:57.416Z,68.89
2023-04-13T02:20:23.776Z,69.02
2023-04-13T02:22:50.185Z,69.20
2023-04-13T02:25:16.640Z,69.30
2023-04-13T02:27:43.061Z,69.55
2023-04-13T02:30:09.486Z,69.65
2023-04-13T02:32:36.017Z,69.55
2023-04-13T02:35:02.325Z,69.73
2023-04-13T02:37:30.902Z,70.05
2023-04-13T02:39:57.789Z,70.46
2023-04-13T02:42:24.196Z,71.40
2023-04-13T02:44:50.556Z,71.71
2023-04-13T02:47:17.019Z,71.65
2023-04-13T02:49:43.351Z,72.12
2023-04-13T02:52:09.761Z,72.28
2023-04-13T02:54:36.211Z,72.26
2023-04-13T02:57:02.633Z,72.33
2023-04-13T02:59:29.109Z,72.47
2023-04-13T03:01:55.515Z,73.79
2023-04-13T03:04:21.889Z,74.68
2023-04-13T03:06:48.257Z,75.18
2023-04-13T03:09:14.651Z,75.53
2023-04-13T03:11:42.381Z,75.65
2023-04-13T03:14:07.515Z,76.42
2023-04-13T03:16:33.935Z,77.05
2023-04-13T03:19:00.278Z,77.68
2023-04-13T03:21:26.655Z,77.80
2023-04-13T03:23:53.017Z,77.88
2023-04-13T03:26:19.418Z,78.00
2023-04-13T03:28:45.950Z,78.00
2023-04-13T03:31:12.341Z,77.73
2023-04-13T03:33:38.804Z,77.81
2023-04-13T03:36:05.243Z,77.64
2023-04-13T03:38:31.638Z,77.70
2023-04-13T03:40:58.054Z,77.81
2023-04-13T03:43:24.461Z,78.20
2023-04-13T03:45:50.986Z,78.26
2023-04-13T03:48:17.322Z,78.59
2023-04-13T03:50:43.749Z,78.37
2023-04-13T03:53:10.104Z,78.57
2023-04-13T03:55:36.498Z,78.52
2023-04-13T03:58:02.862Z,78.41
2023-04-13T04:00:30.423Z,78.33
2023-04-13T04:02:56.871Z,77.87
2023-04-13T04:05:23.247Z,77.79
2023-04-13T04:07:49.677Z,77.81
2023-04-13T04:10:15.995Z,77.29
2023-04-13T04:12:42.361Z,76.17
2023-04-13T04:15:08.786Z,74.69
2023-04-13T04:17:35.746Z,73.84
2023-04-13T04:20:02.630Z,73.14
2023-04-13T04:22:29.036Z,72.04
2023-04-13T04:24:55.435Z,71.08
2023-04-13T04:27:21.865Z,69.49
2023-04-13T04:29:48.221Z,68.20
2023-04-13T04:32:14.711Z,67.34
2023-04-13T04:34:41.042Z,66.46
2023-04-13T04:37:19.681Z,65.26
2023-04-13T04:39:33.824Z,63.99
2023-04-13T04:42:00.236Z,62.36
2023-04-13T04:44:26.640Z,62.12
2023-04-13T04:46:53.105Z,61.75
2023-04-13T04:49:19.458Z,60.87
2023-04-13T04:51:45.882Z,59.75
2023-04-13T04:54:12.238Z,58.60
2023-04-13T04:56:38.632Z,59.19
2023-04-13T04:59:05.006Z,59.09
2023-04-13T05:01:31.455Z,58.11
2023-04-13T05:03:57.968Z,56.69
2023-04-13T05:06:24.383Z,56.31
2023-04-13T05:08:50.806Z,56.08
2023-04-13T05:11:17.225Z,54.77
2023-04-13T05:13:43.833Z,53.45
2023-04-13T05:16:10.436Z,53.68
2023-04-13T05:18:36.815Z,52.57
2023-04-13T05:21:03.168Z,53.71
2023-04-13T05:23:29.722Z,54.73
2023-04-13T05:25:56.096Z,54.28
2023-04-13T05:28:22.536Z,53.19
2023-04-13T05:30:49.240Z,52.29
2023-04-13T05:33:15.611Z,52.11
2023-04-13T05:35:42.144Z,50.29
2023-04-13T05:38:08.508Z,49.33
2023-04-13T05:40:34.939Z,46.83
2023-04-13T05:43:01.342Z,45.04
2023-04-13T05:45:27.734Z,43.35
2023-04-13T05:47:54.183Z,42.74
2023-04-13T05:50:20.509Z,41.44
2023-04-13T05:52:47.017Z,42.44
2023-04-13T05:55:13.425Z,43.11
2023-04-13T05:57:40.017Z,42.74
2023-04-13T06:00:06.491Z,42.84
2023-04-13T06:02:33.019Z,42.37
2023-04-13T06:04:59.630Z,42.57
2023-04-13T06:07:25.815Z,41.85
2023-04-13T06:09:52.190Z,41.57
2023-04-13T06:12:18.553Z,41.04
2023-04-13T06:14:44.983Z,40.63
2023-04-13T06:17:11.458Z,40.04
2023-04-13T06:19:37.759Z,39.76
2023-04-13T06:22:04.162Z,39.35
2023-04-13T06:24:30.575Z,38.17
2023-04-13T06:26:56.990Z,38.05
2023-04-13T06:29:23.618Z,37.59
2023-04-13T06:31:50.028Z,37.80
2023-04-13T06:34:16.426Z,38.08
2023-04-13T06:36:42.905Z,37.45
2023-04-13T06:39:09.331Z,36.62
2023-04-13T06:41:35.756Z,36.53
2023-04-13T06:44:02.266Z,35.72
2023-04-13T06:46:28.819Z,34.97
2023-04-13T06:48:55.381Z,33.88
2023-04-13T06:51:21.820Z,33.54
2023-04-13T06:53:48.202Z,34.21
2023-04-13T06:56:14.561Z,34.29
2023-04-13T06:58:41.002Z,34.26
2023-04-13T07:01:07.595Z,33.77
2023-04-13T07:03:34.058Z,33.49
2023-04-13T07:06:00.211Z,33.56
2023-04-13T07:08:26.573Z,34.21
2023-04-13T07:10:53.009Z,34.33
2023-04-13T07:13:19.376Z,33.40
2023-04-13T07:15:45.768Z,33.53
2023-04-13T07:18:12.135Z,32.96
2023-04-13T07:20:38.559Z,33.24
2023-04-13T07:23:04.970Z,32.67
2023-04-13T07:25:31.380Z,32.43
2023-04-13T07:27:57.788Z,32.49
2023-04-13T07:30:24.215Z,31.89
2023-04-13T07:32:50.787Z,32.17
2023-04-13T07:35:17.195Z,31.55
2023-04-13T07:37:43.581Z,31.26
2023-04-13T07:40:09.993Z,31.90
2023-04-13T07:42:36.427Z,31.93
2023-04-13T07:45:03.609Z,32.13
2023-04-13T07:47:30.052Z,32.10
2023-04-13T07:49:56.400Z,30.65
2023-04-13T07:52:22.819Z,31.21
2023-04-13T07:54:49.409Z,31.25
2023-04-13T07:57:15.813Z,31.09
2023-04-13T07:59:42.226Z,31.09
2023-04-13T08:02:08.737Z,31.07
2023-04-13T08:04:35.469Z,31.21
2023-04-13T08:07:01.685Z,30.99
2023-04-13T08:09:28.076Z,31.01
2023-04-13T08:11:54.576Z,30.66
2023-04-13T08:14:21.198Z,30.61
2023-04-13T08:16:47.711Z,30.67
2023-04-13T08:19:14.015Z,30.99
2023-04-13T08:21:40.413Z,30.05
2023-04-13T08:24:06.851Z,29.93
2023-04-13T08:26:33.209Z,29.15
2023-04-13T08:29:00.117Z,29.70
2023-04-13T08:31:26.341Z,29.02
2023-04-13T08:33:52.693Z,28.95
2023-04-13T08:36:19.080Z,29.22
2023-04-13T08:38:45.506Z,29.37
2023-04-13T08:41:11.913Z,28.90
2023-04-13T08:43:38.305Z,29.16
2023-04-13T08:46:04.801Z,28.31
2023-04-13T08:48:36.370Z,29.13
2023-04-13T08:50:57.595Z,28.90
2023-04-13T08:53:23.963Z,29.01
2023-04-13T08:55:50.335Z,28.76
2023-04-13T08:58:16.716Z,28.92
2023-04-13T09:00:43.137Z,28.63
2023-04-13T09:03:13.971Z,28.92
2023-04-13T09:05:36.976Z,28.61
2023-04-13T09:08:03.432Z,28.44
2023-04-13T09:10:29.834Z,28.66
2023-04-13T09:12:56.238Z,28.32
2023-04-13T09:15:22.621Z,27.54
2023-04-13T09:17:49.102Z,27.30
2023-04-13T09:20:15.418Z,27.66
2023-04-13T09:22:41.830Z,28.14
2023-04-13T09:25:08.204Z,27.68
2023-04-13T09:27:34.598Z,28.20
2023-04-13T09:30:01.070Z,28.51
2023-04-13T09:32:27.431Z,27.62
2023-04-13T09:34:54.162Z,26.78
2023-04-13T09:37:20.702Z,26.90
2023-04-13T09:39:47.130Z,27.46
2023-04-13T09:42:13.514Z,27.63
2023-04-13T09:44:39.924Z,27.33
2023-04-13T09:47:06.567Z,27.63
2023-04-13T09:49:32.934Z,28.31
2023-04-13T09:51:59.347Z,28.45
2023-04-13T09:54:25.750Z,27.93
2023-04-13T09:56:52.596Z,27.40
2023-04-13T09:59:18.971Z,27.04
2023-04-13T10:01:45.939Z,26.13
2023-04-13T10:04:12.220Z,26.97
2023-04-13T10:06:38.752Z,27.03
2023-04-13T10:09:05.166Z,27.02
2023-04-13T10:11:31.533Z,26.84
2023-04-13T10:13:58.369Z,27.31
2023-04-13T10:16:24.701Z,26.15
2023-04-13T10:18:51.036Z,26.84
2023-04-13T10:21:17.376Z,26.72
2023-04-13T10:23:44.088Z,27.23
2023-04-13T10:26:10.580Z,26.88
2023-04-13T10:28:36.956Z,27.58
2023-04-13T10:31:03.375Z,26.91
2023-04-13T10:33:29.959Z,26.05
2023-04-13T10:35:56.351Z,25.46
2023-04-13T10:38:22.759Z,25.92
2023-04-13T10:40:49.169Z,25.50
2023-04-13T10:43:15.559Z,24.91
2023-04-13T10:45:41.944Z,25.27
2023-04-13T10:48:08.347Z,25.55
2023-04-13T10:50:34.765Z,26.07
2023-04-13T10:53:01.151Z,24.74
2023-04-13T10:55:27.938Z,25.57
2023-04-13T10:57:54.449Z,25.37
2023-04-13T11:00:20.833Z,25.14
2023-04-13T11:02:47.497Z,24.80
2023-04-13T11:05:13.625Z,25.43
2023-04-13T11:07:40.016Z,26.52
2023-04-13T11:10:06.782Z,26.47
2023-04-13T11:12:32.859Z,25.86
2023-04-13T11:14:59.288Z,26.88
2023-04-13T11:17:25.818Z,26.85
2023-04-13T11:19:52.118Z,26.14
2023-04-13T11:22:18.913Z,26.08
2023-04-13T11:24:45.380Z,26.16
2023-04-13T11:27:11.930Z,26.05
2023-04-13T11:29:38.302Z,25.72
2023-04-13T11:32:04.867Z,25.78
2023-04-13T11:34:31.260Z,26.51
2023-04-13T11:36:57.621Z,26.98
2023-04-13T11:39:24.006Z,27.43
2023-04-13T11:41:50.464Z,27.30
2023-04-13T11:44:16.886Z,27.06
2023-04-13T11:46:43.416Z,27.01
2023-04-13T11:49:09.711Z,27.20
2023-04-13T11:51:36.109Z,27.30
2023-04-13T11:54:02.837Z,27.72
2023-04-13T11:56:29.221Z,27.10
2023-04-13T11:58:58.270Z,27.60
2023-04-13T12:01:27.189Z,26.72
2023-04-13T12:04:04.155Z,26.87
2023-04-13T12:06:17.919Z,27.15
2023-04-13T12:08:44.286Z,26.96
2023-04-13T12:13:38.015Z,26.84
2023-04-13T12:16:09.407Z,27.00
2023-04-13T12:18:36.651Z,26.61
2023-04-13T12:20:56.246Z,26.29
2023-04-13T12:23:23.888Z,27.30
2023-04-13T12:25:49.863Z,27.56
2023-04-13T12:28:15.534Z,27.60
2023-04-13T12:30:41.913Z,27.57
2023-04-13T12:33:08.377Z,27.24
2023-04-13T12:35:34.743Z,26.97
2023-04-13T12:38:01.119Z,26.63
2023-04-13T12:40:27.532Z,26.66
2023-04-13T12:42:53.950Z,26.83
2023-04-13T12:45:20.329Z,26.71
2023-04-13T12:47:46.919Z,26.72
2023-04-13T12:50:13.176Z,26.63
2023-04-13T12:52:39.588Z,27.04
2023-04-13T12:55:05.972Z,27.59
2023-04-13T12:57:32.463Z,28.38
2023-04-13T12:59:58.773Z,28.17
2023-04-13T13:02:25.231Z,27.99
2023-04-13T13:04:51.771Z,28.40
2023-04-13T13:07:18.454Z,28.58
2023-04-13T13:09:44.842Z,28.79
2023-04-13T13:12:11.255Z,29.70
2023-04-13T13:14:37.749Z,29.39
2023-04-13T13:17:04.111Z,29.45
2023-04-13T13:19:30.492Z,29.88
2023-04-13T13:21:57.964Z,29.67
2023-04-13T13:24:24.321Z,29.11
2023-04-13T13:27:12.114Z,29.87
2023-04-13T13:29:17.410Z,29.75
2023-04-13T13:31:44.041Z,29.83
2023-04-13T13:34:10.375Z,29.85
2023-04-13T13:36:36.795Z,30.22
2023-04-13T13:39:03.262Z,29.91
2023-04-13T13:41:29.658Z,30.25
2023-04-13T13:43:56.045Z,30.60
2023-04-13T13:46:22.487Z,30.35
2023-04-13T13:48:48.825Z,30.22
2023-04-13T13:51:15.268Z,30.02
2023-04-13T13:53:41.632Z,30.31
2023-04-13T13:56:08.052Z,30.35
2023-04-13T13:58:34.414Z,30.28
2023-04-13T14:01:01.173Z,30.48
2023-04-13T14:03:27.580Z,30.53
2023-04-13T14:05:53.922Z,30.51
2023-04-13T14:08:21.473Z,30.33
2023-04-13T14:10:47.886Z,30.63
2023-04-13T14:13:14.343Z,30.36
2023-04-13T14:15:40.774Z,30.56
2023-04-13T14:18:11.298Z,30.68
2023-04-13T14:20:34.653Z,30.51
2023-04-13T14:23:01.068Z,30.76
2023-04-13T14:25:27.498Z,30.70
2023-04-13T14:27:53.955Z,30.38
2023-04-13T14:30:20.373Z,30.26
2023-04-13T14:32:46.821Z,30.38
2023-04-13T14:35:13.381Z,30.46
2023-04-13T14:37:39.797Z,29.99
2023-04-13T14:40:06.281Z,29.67
2023-04-13T14:42:33.064Z,29.59
2023-04-13T14:44:59.448Z,29.77
2023-04-13T14:47:25.918Z,30.30
2023-04-13T14:49:52.326Z,30.36
2023-04-13T14:52:18.743Z,30.77
2023-04-13T14:54:46.156Z,30.78
2023-04-13T14:57:12.721Z,30.89
2023-04-13T14:59:39.022Z,30.73
2023-04-13T15:02:05.523Z,31.09
2023-04-13T15:04:31.922Z,31.25
2023-04-13T15:06:58.194Z,30.88
2023-04-13T15:09:24.734Z,31.06
2023-04-13T15:11:51.130Z,31.07
2023-04-13T15:14:17.541Z,31.23
2023-04-13T15:16:43.977Z,30.92
2023-04-13T15:19:10.340Z,31.23
2023-04-13T15:21:36.850Z,31.37
2023-04-13T15:24:03.176Z,31.19
2023-04-13T15:26:29.514Z,31.27
2023-04-13T15:28:56.027Z,31.19
2023-04-13T15:31:22.531Z,31.15
2023-04-13T15:33:48.898Z,31.00
2023-04-13T15:36:15.303Z,30.88
2023-04-13T15:38:41.808Z,31.17
2023-04-13T15:41:08.155Z,30.75
2023-04-13T15:43:34.537Z,31.01
2023-04-13T15:46:00.967Z,30.46
2023-04-13T15:48:27.403Z,29.90
2023-04-13T15:50:53.805Z,30.08
2023-04-13T15:53:20.290Z,29.81
2023-04-13T15:55:47.011Z,29.61
2023-04-13T15:58:13.395Z,29.72
2023-04-13T16:00:39.818Z,29.71
2023-04-13T16:03:06.368Z,29.62
2023-04-13T16:05:32.643Z,29.46
2023-04-13T16:07:59.061Z,29.62
2023-04-13T16:10:25.424Z,29.83
2023-04-13T16:12:51.988Z,29.42
2023-04-13T16:15:18.413Z,29.50
2023-04-13T16:17:45.189Z,29.38
2023-04-13T16:20:11.538Z,29.57
2023-04-13T16:22:37.947Z,29.63
2023-04-13T16:25:04.454Z,29.87
2023-04-13T16:27:30.888Z,29.97
2023-04-13T16:29:58.491Z,29.98
2023-04-13T16:32:24.917Z,30.30
2023-04-13T16:34:51.354Z,30.40
2023-04-13T16:37:17.738Z,30.53
2023-04-13T16:39:44.116Z,30.79
2023-04-13T16:42:10.499Z,30.77
2023-04-13T16:44:37.088Z,30.98
2023-04-13T16:47:03.480Z,31.25
2023-04-13T16:49:29.882Z,31.36
2023-04-13T16:51:56.313Z,31.41
2023-04-13T16:54:22.689Z,31.54
2023-04-13T16:56:49.104Z,31.66
2023-04-13T16:59:15.595Z,31.61
2023-04-13T17:01:42.074Z,31.72
2023-04-13T17:04:08.471Z,31.79
2023-04-13T17:06:34.987Z,31.95
2023-04-13T17:09:01.527Z,32.02
2023-04-13T17:11:27.738Z,32.31
2023-04-13T17:13:54.175Z,32.49
2023-04-13T17:16:20.822Z,32.64
2023-04-13T17:18:47.165Z,32.83
2023-04-13T17:21:13.601Z,32.92
2023-04-13T17:23:40.031Z,33.08
2023-04-13T17:26:06.389Z,33.17
2023-04-13T17:28:33.054Z,33.25
2023-04-13T17:30:59.412Z,33.40
2023-04-13T17:33:25.801Z,33.69
2023-04-13T17:35:52.556Z,33.66
2023-04-13T17:38:19.045Z,33.75
2023-04-13T17:40:45.435Z,33.83
2023-04-13T17:43:11.891Z,33.92
2023-04-13T17:45:40.496Z,34.09
2023-04-13T17:48:04.718Z,34.15
2023-04-13T17:50:31.105Z,34.06
2023-04-13T17:52:57.516Z,34.07
2023-04-13T17:55:23.930Z,34.10
2023-04-13T17:57:50.489Z,34.13
2023-04-13T18:00:16.923Z,34.40
2023-04-13T18:02:43.415Z,34.56
2023-04-13T18:05:09.662Z,34.96
2023-04-13T18:07:36.035Z,35.49
2023-04-13T18:10:02.492Z,35.58
2023-04-13T18:12:28.861Z,35.77
2023-04-13T18:14:55.262Z,36.65
2023-04-13T18:17:21.796Z,36.20
2023-04-13T18:19:48.043Z,36.08
2023-04-13T18:22:15.240Z,36.24
2023-04-13T18:24:40.885Z,36.31
2023-04-13T18:27:07.249Z,36.68
2023-04-13T18:29:33.685Z,37.10
2023-04-13T18:32:00.046Z,36.71
2023-04-13T18:34:26.482Z,37.14
2023-04-13T18:36:52.892Z,38.11
2023-04-13T18:39:19.304Z,38.67
2023-04-13T18:41:45.685Z,38.79
2023-04-13T18:44:12.097Z,39.07
2023-04-13T18:46:38.611Z,39.04
2023-04-13T18:49:04.940Z,39.37
2023-04-13T18:51:31.342Z,39.68
2023-04-13T18:53:57.979Z,40.07
2023-04-13T18:56:24.182Z,40.52
2023-04-13T18:58:50.600Z,40.97
2023-04-13T19:01:17.001Z,41.44
2023-04-13T19:03:43.634Z,41.95
2023-04-13T19:06:09.853Z,40.53
2023-04-13T19:08:36.212Z,41.08
2023-04-13T19:11:02.584Z,42.01
2023-04-13T19:13:28.960Z,42.53
2023-04-13T19:15:57.479Z,43.13
2023-04-13T19:18:21.796Z,43.69
2023-04-13T19:20:48.234Z,44.26
2023-04-13T19:23:14.657Z,44.69
2023-04-13T19:25:41.080Z,44.65
2023-04-13T19:28:07.503Z,44.74
2023-04-13T19:30:34.010Z,44.83
2023-04-13T19:33:00.501Z,44.99
2023-04-13T19:35:27.097Z,45.31
2023-04-13T19:37:53.465Z,45.53
2023-04-13T19:40:19.955Z,46.00
2023-04-13T19:42:46.356Z,45.71
2023-04-13T19:45:12.739Z,45.56
2023-04-13T19:47:39.332Z,45.70
2023-04-13T19:50:05.564Z,45.81
2023-04-13T19:52:31.895Z,45.82
2023-04-13T19:54:58.286Z,45.89
2023-04-13T19:57:24.663Z,46.08
2023-04-13T19:59:51.108Z,46.23
2023-04-13T20:02:17.706Z,46.47
2023-04-13T20:04:44.134Z,47.64
2023-04-13T20:07:10.433Z,48.58
2023-04-13T20:09:36.849Z,48.67
2023-04-13T20:12:03.252Z,48.84
2023-04-13T20:14:29.633Z,49.25
2023-04-13T20:16:56.192Z,49.40
2023-04-13T20:19:22.574Z,49.19
2023-04-13T20:21:49.184Z,49.21
2023-04-13T20:24:15.600Z,49.21
2023-04-13T20:26:41.960Z,49.40
2023-04-13T20:29:08.522Z,49.59
2023-04-13T20:31:34.833Z,49.46
2023-04-13T20:34:01.274Z,49.42
2023-04-13T20:36:27.640Z,49.54
2023-04-13T20:38:54.067Z,49.67
2023-04-13T20:41:20.429Z,49.39
2023-04-13T20:43:46.875Z,49.31
2023-04-13T20:46:13.330Z,49.43
2023-04-13T20:51:06.123Z,49.92
2023-04-13T20:53:32.506Z,49.75
2023-04-13T20:55:58.871Z,49.88
2023-04-13T20:58:25.306Z,49.62
2023-04-13T21:00:51.735Z,49.54
2023-04-13T21:03:18.345Z,49.64
2023-04-13T21:05:44.576Z,49.72
2023-04-13T21:08:10.997Z,49.98
2023-04-13T21:10:37.563Z,49.93
2023-04-13T21:13:03.915Z,50.14
2023-04-13T21:15:30.333Z,50.48
2023-04-13T21:17:56.805Z,50.46
2023-04-13T21:20:23.357Z,50.57
2023-04-13T21:22:49.773Z,51.05
2023-04-13T21:25:16.153Z,51.03
2023-04-13T21:27:42.506Z,51.09
2023-04-13T21:30:08.946Z,51.20
2023-04-13T21:32:35.381Z,51.38
2023-04-13T21:35:02.067Z,51.37
2023-04-13T21:37:28.646Z,51.04
2023-04-13T21:39:55.019Z,51.17
2023-04-13T21:42:22.728Z,51.04
2023-04-13T21:44:47.871Z,51.64
2023-04-13T21:47:14.297Z,51.82
2023-04-13T21:49:40.666Z,51.83
2023-04-13T21:52:07.170Z,51.97
2023-04-13T21:54:33.595Z,52.05
2023-04-13T21:57:00.003Z,52.65
2023-04-13T21:59:26.557Z,53.11
2023-04-13T22:01:53.073Z,52.87
2023-04-13T22:04:19.445Z,53.38
2023-04-13T22:06:45.766Z,53.09
2023-04-13T22:09:12.381Z,53.56
2023-04-13T22:11:38.564Z,53.59
2023-04-13T22:14:04.987Z,53.73
2023-04-13T22:16:31.412Z,53.71
2023-04-13T22:18:58.009Z,53.94
2023-04-13T22:21:24.226Z,53.75
2023-04-13T22:23:50.773Z,53.95
2023-04-13T22:26:17.155Z,53.90
2023-04-13T22:28:43.582Z,54.10
2023-04-13T22:31:10.070Z,54.55
2023-04-13T22:33:36.524Z,54.69
2023-04-13T22:36:02.952Z,55.14
2023-04-13T22:38:29.321Z,55.37
2023-04-13T22:40:55.740Z,55.42
2023-04-13T22:43:22.215Z,55.67
2023-04-13T22:45:48.633Z,55.34
2023-04-13T22:48:15.032Z,55.74
2023-04-13T22:50:41.525Z,55.89
2023-04-13T22:53:07.935Z,55.83
2023-04-13T22:55:34.364Z,55.65
2023-04-13T22:58:00.782Z,55.77
2023-04-13T23:00:27.169Z,55.67
2023-04-13T23:02:53.751Z,55.74
2023-04-13T23:05:20.205Z,56.41
2023-04-13T23:07:46.643Z,56.40
2023-04-13T23:10:15.267Z,56.18
2023-04-13T23:12:39.775Z,56.42
2023-04-13T23:15:06.179Z,56.60
2023-04-13T23:17:32.584Z,56.86
2023-04-13T23:19:58.939Z,57.07
2023-04-13T23:22:25.371Z,57.63
2023-04-13T23:24:54.153Z,57.90
2023-04-13T23:27:20.577Z,58.14
2023-04-13T23:29:47.112Z,58.35
2023-04-13T23:32:13.586Z,58.82
2023-04-13T23:34:39.888Z,58.79
2023-04-13T23:37:06.325Z,59.02
2023-04-13T23:39:32.706Z,59.74
2023-04-13T23:41:59.077Z,59.83
2023-04-13T23:44:25.478Z,59.49
2023-04-13T23:46:51.880Z,58.83
2023-04-13T23:49:18.259Z,57.69
2023-04-13T23:51:44.661Z,57.08
2023-04-13T23:54:11.136Z,57.28
2023-04-13T23:56:37.544Z,58.09
2023-04-13T23:59:03.927Z,58.48
